createdAt,value
2022-08-19T00:00:11.954Z,114490.28
2022-08-19T00:02:15.675Z,114490.28
2022-08-19T00:04:20.821Z,114490.28
2022-08-19T00:06:24.358Z,114490.28
2022-08-19T00:08:28.051Z,114490.28
2022-08-19T00:10:31.687Z,114490.28
2022-08-19T00:12:35.850Z,114490.28
2022-08-19T00:14:50.600Z,114490.28
2022-08-19T00:16:57.526Z,114490.28
2022-08-19T00:19:01.438Z,114490.28
2022-08-19T00:21:11.497Z,114490.28
2022-08-19T00:23:15.007Z,114490.28
2022-08-19T00:25:19.138Z,114490.28
2022-08-19T00:27:44.513Z,114490.28
2022-08-19T00:29:52.342Z,114490.28
2022-08-19T00:31:58.126Z,114490.28
2022-08-19T00:34:02.407Z,114490.28
2022-08-19T00:36:08.659Z,114490.28
2022-08-19T00:38:12.410Z,114490.28
2022-08-19T00:40:16.308Z,114490.28
2022-08-19T00:42:20.934Z,114490.28
2022-08-19T00:44:27.225Z,114490.28
2022-08-19T00:46:30.908Z,114490.28
2022-08-19T00:48:35.718Z,114490.28
2022-08-19T00:50:51.847Z,114490.28
2022-08-19T00:52:56.779Z,114490.28
2022-08-19T00:55:01.053Z,114490.28
2022-08-19T00:57:08.128Z,114490.28
2022-08-19T00:59:12.221Z,114490.28
2022-08-19T01:01:16.189Z,114490.28
2022-08-19T01:03:21.697Z,114490.28
2022-08-19T01:05:30.687Z,114490.28
2022-08-19T01:07:38.309Z,114490.28
2022-08-19T01:09:45.773Z,114490.28
2022-08-19T01:11:49.777Z,114490.28
2022-08-19T01:13:54.796Z,114490.28
2022-08-19T01:16:00.012Z,114490.28
2022-08-19T01:18:10.265Z,114490.28
2022-08-19T01:20:19.291Z,114490.28
2022-08-19T01:22:31.412Z,114490.28
2022-08-19T01:24:35.732Z,114490.28
2022-08-19T01:26:50.087Z,114490.28
2022-08-19T01:28:57.422Z,114490.28
2022-08-19T01:31:07.080Z,114490.28
2022-08-19T01:33:11.930Z,114490.28
2022-08-19T01:35:16.121Z,114490.28
2022-08-19T01:37:24.959Z,114490.28
2022-08-19T01:39:30.867Z,114490.28
2022-08-19T01:41:34.922Z,114490.28
2022-08-19T01:44:13.561Z,114490.28
2022-08-19T01:46:03.734Z,114490.28
2022-08-19T01:48:10.874Z,114490.28
2022-08-19T01:50:15.492Z,114490.28
2022-08-19T01:52:18.955Z,114490.28
2022-08-19T01:54:27.632Z,114490.28
2022-08-19T01:56:31.724Z,114490.28
2022-08-19T01:58:51.456Z,114490.28
2022-08-19T02:00:55.471Z,114490.28
2022-08-19T02:02:59.519Z,114490.28
2022-08-19T02:05:06.214Z,114490.28
2022-08-19T02:07:14.585Z,114490.28
2022-08-19T02:09:20.066Z,114490.28
2022-08-19T02:11:28.557Z,114490.28
2022-08-19T02:13:33.003Z,114490.28
2022-08-19T02:15:36.988Z,114490.28
2022-08-19T02:17:41.199Z,114490.28
2022-08-19T02:19:45.057Z,114490.28
2022-08-19T02:21:48.911Z,114490.28
2022-08-19T02:23:52.711Z,114490.28
2022-08-19T02:25:56.566Z,114490.28
2022-08-19T02:28:00.456Z,114490.28
2022-08-19T02:30:05.232Z,114490.28
2022-08-19T02:32:09.187Z,114490.28
2022-08-19T02:34:12.987Z,114490.28
2022-08-19T02:36:21.121Z,114490.28
2022-08-19T02:38:28.185Z,114490.28
2022-08-19T02:40:37.603Z,114490.28
2022-08-19T02:42:43.303Z,114490.28
2022-08-19T02:44:46.776Z,114490.28
2022-08-19T02:46:52.747Z,114490.28
2022-08-19T02:48:59.749Z,114490.28
2022-08-19T02:51:03.797Z,114490.28
2022-08-19T02:53:10.393Z,114490.28
2022-08-19T02:55:17.618Z,114490.28
2022-08-19T02:57:21.353Z,114490.28
2022-08-19T02:59:25.134Z,114490.28
2022-08-19T03:01:31.157Z,114490.28
2022-08-19T03:03:35.405Z,114490.28
2022-08-19T03:05:48.074Z,114490.28
2022-08-19T03:08:00.086Z,114490.28
2022-08-19T03:10:03.791Z,114490.28
2022-08-19T03:12:08.104Z,114490.28
2022-08-19T03:14:12.046Z,114490.28
2022-08-19T03:16:15.415Z,114490.28
2022-08-19T03:18:19.013Z,114490.28
2022-08-19T03:20:22.723Z,114490.28
2022-08-19T03:22:27.407Z,114490.28
2022-08-19T03:24:40.839Z,114490.28
2022-08-19T03:26:45.457Z,114490.28
2022-08-19T03:28:58.007Z,114490.28
2022-08-19T03:31:41.825Z,114490.28
2022-08-19T03:33:31.763Z,114490.28
2022-08-19T03:35:38.657Z,114490.28
2022-08-19T03:37:43.096Z,114490.28
2022-08-19T03:39:46.602Z,114490.28
2022-08-19T03:42:32.229Z,114490.28
2022-08-19T03:44:25.046Z,114490.28
2022-08-19T03:46:31.448Z,114490.28
2022-08-19T03:48:35.881Z,114490.28
2022-08-19T03:50:43.134Z,114490.28
2022-08-19T03:52:50.688Z,114490.28
2022-08-19T03:54:57.205Z,114490.28
2022-08-19T03:57:01.381Z,114490.28
2022-08-19T03:59:06.110Z,114490.28
2022-08-19T04:01:11.138Z,114490.28
2022-08-19T04:03:15.198Z,114490.28
2022-08-19T04:05:18.982Z,114490.28
2022-08-19T04:07:28.623Z,114490.28
2022-08-19T04:09:32.375Z,114490.28
2022-08-19T04:11:42.995Z,114490.28
2022-08-19T04:13:47.721Z,114490.28
2022-08-19T04:15:51.848Z,114490.28
2022-08-19T04:17:55.441Z,114490.28
2022-08-19T04:19:59.060Z,114490.28
2022-08-19T04:22:07.254Z,114490.28
2022-08-19T04:24:11.658Z,114490.28
2022-08-19T04:26:20.549Z,114490.28
2022-08-19T04:28:25.320Z,114490.28
2022-08-19T04:30:28.978Z,114490.28
2022-08-19T04:32:33.960Z,114490.28
2022-08-19T04:35:02.482Z,114490.28
2022-08-19T04:37:02.674Z,114490.28
2022-08-19T04:39:20.158Z,114490.28
2022-08-19T04:41:42.416Z,114490.28
2022-08-19T04:43:50.701Z,114490.28
2022-08-19T04:45:56.490Z,114490.28
2022-08-19T04:48:27.262Z,114490.28
2022-08-19T04:50:29.111Z,114490.28
2022-08-19T04:52:36.223Z,114490.28
2022-08-19T04:54:40.234Z,114490.28
2022-08-19T04:56:45.835Z,114490.28
2022-08-19T04:58:49.665Z,114490.28
2022-08-19T05:00:53.719Z,114490.28
2022-08-19T05:02:57.698Z,114490.28
2022-08-19T05:05:02.539Z,114490.28
2022-08-19T05:07:06.515Z,114490.28
2022-08-19T05:09:10.273Z,114490.28
2022-08-19T05:11:20.746Z,114490.28
2022-08-19T05:13:27.429Z,114490.28
2022-08-19T05:15:34.153Z,114490.28
2022-08-19T05:17:39.118Z,114490.28
2022-08-19T05:20:01.589Z,114490.28
2022-08-19T05:22:23.477Z,114490.28
2022-08-19T05:24:30.655Z,114490.28
2022-08-19T05:26:34.934Z,114490.28
2022-08-19T05:28:38.637Z,114490.28
2022-08-19T05:30:47.490Z,114490.28
2022-08-19T05:32:52.120Z,114490.28
2022-08-19T05:34:58.714Z,114490.28
2022-08-19T05:39:21.692Z,114490.28
2022-08-19T05:41:31.366Z,114490.28
2022-08-19T05:43:35.250Z,114490.28
2022-08-19T05:45:43.501Z,114490.28
2022-08-19T05:47:48.272Z,114490.28
2022-08-19T05:49:52.745Z,114490.28
2022-08-19T05:58:34.992Z,114490.28
2022-08-19T06:00:40.229Z,114490.28
2022-08-19T06:02:44.426Z,114490.28
2022-08-19T06:04:48.094Z,114490.28
2022-08-19T06:06:53.710Z,114490.28
2022-08-19T06:08:57.484Z,114490.28
2022-08-19T06:11:14.907Z,114490.28
2022-08-19T06:13:19.369Z,114490.28
2022-08-19T06:15:25.252Z,114490.28
2022-08-19T06:17:32.513Z,114490.28
2022-08-19T06:19:40.890Z,114490.28
2022-08-19T06:21:46.985Z,114490.28
2022-08-19T06:23:53.019Z,114490.28
2022-08-19T06:25:56.924Z,114490.28
2022-08-19T06:28:16.097Z,114490.28
2022-08-19T06:30:19.938Z,114203.88
2022-08-19T06:32:23.886Z,114133.78
2022-08-19T06:34:29.337Z,113797.34
2022-08-19T06:36:36.213Z,113835.41
2022-08-19T06:38:40.336Z,113681.19
2022-08-19T06:42:54.153Z,113887.47
2022-08-19T06:45:00.082Z,114157.81
2022-08-19T06:47:09.654Z,114388.13
2022-08-19T06:49:19.720Z,114490.28
2022-08-19T06:51:24.466Z,114490.28
2022-08-19T06:53:30.456Z,114490.28
2022-08-19T06:55:34.327Z,114490.28
2022-08-19T06:57:40.319Z,114490.28
2022-08-19T06:59:44.294Z,114300.00
2022-08-19T07:01:50.316Z,114057.69
2022-08-19T07:03:53.802Z,113703.22
2022-08-19T07:05:58.222Z,113358.81
2022-08-19T07:08:04.861Z,112714.13
2022-08-19T07:10:08.975Z,110818.72
2022-08-19T07:12:15.361Z,109464.25
2022-08-19T07:14:20.603Z,108838.19
2022-08-19T07:16:29.339Z,108472.19
2022-08-19T07:18:33.725Z,107810.28
2022-08-19T07:20:39.219Z,106864.59
2022-08-19T07:22:43.070Z,106700.69
2022-08-19T07:24:51.021Z,106726.66
2022-08-19T07:26:56.934Z,105597.38
2022-08-19T07:29:03.669Z,103197.91
2022-08-19T07:31:15.313Z,102217.38
2022-08-19T07:33:20.144Z,101155.22
2022-08-19T07:35:24.072Z,101416.72
2022-08-19T07:37:32.866Z,101364.81
2022-08-19T07:39:38.234Z,100604.28
2022-08-19T07:41:41.903Z,100308.88
2022-08-19T07:43:47.755Z,98618.72
2022-08-19T07:45:54.987Z,97080.84
2022-08-19T07:47:59.675Z,97415.91
2022-08-19T07:50:06.420Z,97601.38
2022-08-19T07:52:12.460Z,97814.81
2022-08-19T07:54:16.184Z,95880.47
2022-08-19T07:56:21.317Z,95740.91
2022-08-19T07:58:25.057Z,95738.94
2022-08-19T08:00:29.056Z,95114.97
2022-08-19T08:02:32.982Z,95061.16
2022-08-19T08:08:48.025Z,87951.41
2022-08-19T08:10:54.652Z,84872.41
2022-08-19T08:13:09.836Z,83145.00
2022-08-19T08:15:20.805Z,81330.91
2022-08-19T08:17:48.558Z,81324.94
2022-08-19T08:19:53.982Z,80180.91
2022-08-19T08:21:58.720Z,78425.72
2022-08-19T08:24:03.080Z,78602.38
2022-08-19T08:26:07.307Z,78288.75
2022-08-19T08:28:17.574Z,78306.63
2022-08-19T08:30:24.264Z,78298.66
2022-08-19T08:32:28.085Z,78550.78
2022-08-19T08:34:32.014Z,78461.44
2022-08-19T08:36:38.703Z,78310.59
2022-08-19T08:38:43.371Z,77915.59
2022-08-19T08:40:51.869Z,77921.53
2022-08-19T08:45:17.372Z,74247.34
2022-08-19T08:47:23.158Z,72689.03
2022-08-19T08:49:44.147Z,72696.94
2022-08-19T08:51:59.306Z,73600.94
2022-08-19T08:54:06.734Z,74501.19
2022-08-19T08:56:16.886Z,82719.72
2022-08-19T08:58:27.541Z,90570.78
2022-08-19T09:00:39.492Z,87374.41
2022-08-19T09:02:43.544Z,85128.91
2022-08-19T09:04:48.316Z,79557.34
2022-08-19T09:06:55.860Z,75691.22
2022-08-19T09:09:15.968Z,71529.59
2022-08-19T09:11:42.739Z,68508.72
2022-08-19T09:14:00.390Z,63854.13
2022-08-19T09:16:08.614Z,60609.84
2022-08-19T09:18:18.169Z,58288.44
2022-08-19T09:20:26.482Z,56983.16
2022-08-19T09:22:33.212Z,57052.25
2022-08-19T09:24:37.912Z,56941.69
2022-08-19T09:26:52.306Z,52750.28
2022-08-19T09:28:57.726Z,51314.69
2022-08-19T09:31:02.513Z,50977.56
2022-08-19T09:33:07.353Z,50766.63
2022-08-19T09:35:11.346Z,50388.16
2022-08-19T09:37:16.152Z,50252.16
2022-08-19T09:39:19.786Z,50206.81
2022-08-19T09:41:28.790Z,50216.66
2022-08-19T09:43:44.464Z,50177.25
2022-08-19T09:45:51.782Z,50112.19
2022-08-19T09:47:56.402Z,50147.69
2022-08-19T09:50:00.443Z,50238.34
2022-08-19T09:52:04.240Z,50246.22
2022-08-19T09:54:11.224Z,50285.66
2022-08-19T09:56:15.512Z,50260.03
2022-08-19T09:58:26.749Z,50275.81
2022-08-19T10:00:34.392Z,50293.53
2022-08-19T10:02:38.622Z,50224.56
2022-08-19T10:05:01.935Z,50204.84
2022-08-19T10:07:07.215Z,50126.00
2022-08-19T10:09:13.060Z,49712.13
2022-08-19T10:11:28.083Z,49676.63
2022-08-19T10:13:40.923Z,49684.53
2022-08-19T10:15:47.780Z,49682.56
2022-08-19T10:17:55.237Z,49658.91
2022-08-19T10:20:02.361Z,49639.19
2022-08-19T10:22:07.500Z,49668.75
2022-08-19T10:24:16.579Z,49678.59
2022-08-19T10:26:33.461Z,49696.34
2022-08-19T10:28:42.751Z,49702.25
2022-08-19T10:30:51.010Z,49702.25
2022-08-19T10:32:55.357Z,49702.25
2022-08-19T10:34:59.616Z,49672.69
2022-08-19T10:37:03.590Z,49670.72
2022-08-19T10:39:09.049Z,49658.91
2022-08-19T10:41:17.636Z,49651.03
2022-08-19T10:43:21.508Z,49645.09
2022-08-19T10:45:28.437Z,49664.81
2022-08-19T10:47:32.242Z,49662.84
2022-08-19T10:49:56.107Z,49670.72
2022-08-19T10:52:20.255Z,49645.09
2022-08-19T10:54:46.006Z,49645.09
2022-08-19T10:56:55.695Z,49643.13
2022-08-19T10:59:01.688Z,49621.47
2022-08-19T11:01:05.621Z,49623.44
2022-08-19T11:03:09.767Z,49619.47
2022-08-19T11:05:14.834Z,49619.47
2022-08-19T11:07:19.069Z,49558.41
2022-08-19T11:09:24.693Z,49558.41
2022-08-19T11:11:29.132Z,49552.47
2022-08-19T11:13:35.531Z,49556.41
2022-08-19T11:15:40.529Z,49558.41
2022-08-19T11:17:45.573Z,49558.41
2022-08-19T11:19:50.665Z,49556.41
2022-08-19T11:21:57.600Z,49556.41
2022-08-19T11:24:06.232Z,49556.41
2022-08-19T11:26:10.255Z,49554.44
2022-08-19T11:28:15.192Z,49554.44
2022-08-19T11:30:19.169Z,49554.44
2022-08-19T11:32:23.298Z,49554.44
2022-08-19T11:34:29.618Z,49554.44
2022-08-19T11:36:34.938Z,49552.47
2022-08-19T11:38:38.963Z,49554.44
2022-08-19T11:40:44.433Z,49556.41
2022-08-19T11:42:57.721Z,49558.41
2022-08-19T11:45:01.854Z,49550.50
2022-08-19T11:47:09.093Z,49554.44
2022-08-19T11:49:14.123Z,49554.44
2022-08-19T11:51:20.491Z,49556.41
2022-08-19T11:53:24.199Z,49552.47
2022-08-19T11:55:28.810Z,49552.47
2022-08-19T11:57:32.569Z,49552.47
2022-08-19T11:59:39.007Z,49550.50
2022-08-19T12:01:44.557Z,49550.50
2022-08-19T12:03:49.559Z,49548.53
2022-08-19T12:05:53.445Z,49552.47
2022-08-19T12:08:00.098Z,49544.59
2022-08-19T12:10:03.904Z,49548.53
2022-08-19T12:12:08.516Z,49546.56
2022-08-19T12:14:18.651Z,49542.63
2022-08-19T12:16:29.717Z,49536.72
2022-08-19T12:18:33.267Z,49532.78
2022-08-19T12:20:41.697Z,49534.75
2022-08-19T12:22:45.335Z,49532.78
2022-08-19T12:24:50.192Z,49526.88
2022-08-19T12:26:54.109Z,49528.84
2022-08-19T12:29:01.508Z,49528.84
2022-08-19T12:31:31.693Z,49526.88
2022-08-19T12:33:37.354Z,49526.88
2022-08-19T12:35:45.785Z,49522.91
2022-08-19T12:37:57.264Z,49524.88
2022-08-19T12:40:01.913Z,49522.91
2022-08-19T12:42:06.293Z,49520.94
2022-08-19T12:44:10.333Z,49520.94
2022-08-19T12:46:17.328Z,49526.88
2022-08-19T12:48:33.207Z,49522.91
2022-08-19T12:50:38.144Z,49526.88
2022-08-19T12:52:45.982Z,49536.72
2022-08-19T12:54:54.050Z,49540.66
2022-08-19T12:56:59.108Z,49542.63
2022-08-19T12:59:07.232Z,49560.38
2022-08-19T13:01:12.684Z,49568.25
2022-08-19T13:03:16.121Z,49637.22
2022-08-19T13:05:27.419Z,49954.53
2022-08-19T13:07:32.825Z,50575.41
2022-08-19T13:09:37.595Z,51486.22
2022-08-19T13:11:41.631Z,53777.97
2022-08-19T13:13:46.026Z,57257.59
2022-08-19T13:15:50.116Z,60183.00
2022-08-19T13:17:55.101Z,64107.31
2022-08-19T13:19:59.053Z,65988.78
2022-08-19T13:22:03.069Z,69552.41
2022-08-19T13:24:07.491Z,73710.00
2022-08-19T13:26:12.599Z,76320.13
2022-08-19T13:28:16.505Z,79239.66
2022-08-19T13:30:39.479Z,83749.22
2022-08-19T13:33:01.379Z,86883.03
2022-08-19T13:35:05.681Z,91699.88
2022-08-19T13:37:09.577Z,98018.28
2022-08-19T13:39:13.645Z,99604.41
2022-08-19T13:41:17.582Z,103823.13
2022-08-19T13:43:24.101Z,104254.63
2022-08-19T13:45:29.099Z,104626.22
2022-08-19T13:47:32.415Z,107276.44
2022-08-19T13:49:38.401Z,107454.38
2022-08-19T13:51:42.124Z,109226.22
2022-08-19T13:53:48.210Z,110476.56
2022-08-19T13:55:53.332Z,112091.56
2022-08-19T13:57:58.361Z,112956.38
2022-08-19T14:00:02.421Z,113819.38
2022-08-19T14:02:08.029Z,114043.66
2022-08-19T14:04:11.868Z,114001.59
2022-08-19T14:06:17.224Z,114087.72
2022-08-19T14:08:21.383Z,114490.28
2022-08-19T14:10:25.775Z,114490.28
2022-08-19T14:12:29.539Z,114490.28
2022-08-19T14:14:34.599Z,114490.28
2022-08-19T14:16:38.022Z,114490.28
2022-08-19T14:18:42.247Z,114490.28
2022-08-19T14:20:46.470Z,114490.28
2022-08-19T14:22:50.702Z,114490.28
2022-08-19T14:24:54.397Z,114490.28
2022-08-19T14:27:01.428Z,114490.28
2022-08-19T14:29:04.966Z,114490.28
2022-08-19T14:31:09.687Z,114490.28
2022-08-19T14:33:13.626Z,114490.28
2022-08-19T14:35:18.186Z,114490.28
2022-08-19T14:37:21.948Z,114490.28
2022-08-19T14:39:40.277Z,114490.28
2022-08-19T14:41:45.324Z,114490.28
2022-08-19T14:43:50.186Z,114490.28
2022-08-19T14:45:54.049Z,114490.28
2022-08-19T14:47:58.501Z,114490.28
2022-08-19T14:50:04.978Z,114490.28
2022-08-19T14:52:11.116Z,114490.28
2022-08-19T14:54:15.794Z,114490.28
2022-08-19T14:56:21.568Z,114490.28
2022-08-19T14:58:29.335Z,114490.28
2022-08-19T15:00:33.854Z,114490.28
2022-08-19T15:02:40.888Z,114490.28
2022-08-19T15:04:45.880Z,114490.28
2022-08-19T15:06:50.045Z,114490.28
2022-08-19T15:08:55.401Z,114490.28
2022-08-19T15:11:00.330Z,114490.28
2022-08-19T15:13:04.368Z,114490.28
2022-08-19T15:15:08.839Z,114490.28
2022-08-19T15:17:12.590Z,114490.28
2022-08-19T15:19:19.099Z,114490.28
2022-08-19T15:21:26.618Z,114490.28
2022-08-19T15:23:32.620Z,114490.28
2022-08-19T15:25:37.314Z,114490.28
2022-08-19T15:27:41.824Z,114490.28
2022-08-19T15:29:47.430Z,114490.28
2022-08-19T15:31:52.849Z,114490.28
2022-08-19T15:33:59.484Z,114490.28
2022-08-19T15:36:05.997Z,114490.28
2022-08-19T15:38:15.184Z,114490.28
2022-08-19T15:40:19.232Z,114490.28
2022-08-19T15:42:29.990Z,114490.28
2022-08-19T15:44:36.389Z,114490.28
2022-08-19T15:46:43.548Z,114490.28
2022-08-19T15:48:49.108Z,114490.28
2022-08-19T15:51:01.387Z,114490.28
2022-08-19T15:53:07.422Z,114490.28
2022-08-19T15:55:11.328Z,114490.28
2022-08-19T15:57:53.598Z,114490.28
2022-08-19T16:00:15.823Z,114490.28
2022-08-19T16:02:40.035Z,114490.28
2022-08-19T16:05:01.772Z,114490.28
2022-08-19T16:07:05.641Z,114490.28
2022-08-19T16:09:10.681Z,114490.28
2022-08-19T16:11:14.397Z,114490.28
2022-08-19T16:13:19.173Z,114490.28
2022-08-19T16:15:22.851Z,114490.28
2022-08-19T16:17:26.720Z,114490.28
2022-08-19T16:19:30.198Z,114490.28
2022-08-19T16:21:34.624Z,114490.28
2022-08-19T16:23:42.045Z,114490.28
2022-08-19T16:25:45.973Z,114490.28
2022-08-19T16:28:06.716Z,114490.28
2022-08-19T16:30:12.419Z,114490.28
2022-08-19T16:32:16.106Z,114490.28
2022-08-19T16:34:20.186Z,114490.28
2022-08-19T16:36:26.801Z,114490.28
2022-08-19T16:38:34.635Z,114490.28
2022-08-19T16:40:38.542Z,114490.28
2022-08-19T16:42:42.506Z,114490.28
2022-08-19T16:44:47.567Z,114490.28
2022-08-19T16:46:58.477Z,114490.28
2022-08-19T16:49:02.725Z,114490.28
2022-08-19T16:51:10.393Z,114490.28
2022-08-19T16:53:14.177Z,114490.28
2022-08-19T16:55:20.008Z,114490.28
2022-08-19T16:57:24.870Z,114490.28
2022-08-19T16:59:28.528Z,114490.28
2022-08-19T17:01:32.983Z,114490.28
2022-08-19T17:03:38.624Z,114490.28
2022-08-19T17:05:46.266Z,114490.28
2022-08-19T17:07:58.046Z,114490.28
2022-08-19T17:10:02.581Z,114490.28
2022-08-19T17:12:06.732Z,114490.28
2022-08-19T17:14:11.139Z,114490.28
2022-08-19T17:16:15.099Z,114490.28
2022-08-19T17:18:19.187Z,114490.28
2022-08-19T17:20:23.151Z,114490.28
2022-08-19T17:22:27.292Z,114490.28
2022-08-19T17:24:31.126Z,114490.28
2022-08-19T17:26:35.216Z,114490.28
2022-08-19T17:28:39.218Z,114490.28
2022-08-19T17:30:43.439Z,114490.28
2022-08-19T17:32:50.188Z,114490.28
2022-08-19T17:34:58.404Z,114490.28
2022-08-19T17:37:02.053Z,114490.28
2022-08-19T17:39:06.442Z,114490.28
2022-08-19T17:41:10.128Z,114490.28
2022-08-19T17:43:16.509Z,114490.28
2022-08-19T17:45:36.362Z,114490.28
2022-08-19T17:47:40.437Z,114490.28
2022-08-19T17:49:44.183Z,114490.28
2022-08-19T17:51:48.575Z,114490.28
2022-08-19T17:53:53.423Z,114490.28
2022-08-19T17:55:58.015Z,114490.28
2022-08-19T17:58:06.894Z,114490.28
2022-08-19T18:00:15.982Z,114490.28
2022-08-19T18:02:22.023Z,114490.28
2022-08-19T18:04:27.029Z,114490.28
2022-08-19T18:06:33.621Z,114490.28
2022-08-19T18:08:40.475Z,114490.28
2022-08-19T18:10:49.717Z,114490.28
2022-08-19T18:13:02.897Z,114490.28
2022-08-19T18:15:21.848Z,114490.28
2022-08-19T18:17:27.153Z,114490.28
2022-08-19T18:19:42.021Z,114490.28
2022-08-19T18:21:48.428Z,114490.28
2022-08-19T18:23:52.200Z,114490.28
2022-08-19T18:26:04.992Z,114490.28
2022-08-19T18:28:08.649Z,114490.28
2022-08-19T18:30:12.675Z,114490.28
2022-08-19T18:32:18.171Z,114490.28
2022-08-19T18:34:28.071Z,114490.28
2022-08-19T18:36:52.457Z,114490.28
2022-08-19T18:39:14.739Z,114490.28
2022-08-19T18:41:38.138Z,114490.28
2022-08-19T18:44:00.152Z,114490.28
2022-08-19T18:46:22.309Z,114490.28
2022-08-19T18:48:48.388Z,114490.28
2022-08-19T18:50:52.430Z,114490.28
2022-08-19T18:52:56.212Z,114490.28
2022-08-19T18:55:00.586Z,114490.28
2022-08-19T18:57:06.852Z,114490.28
2022-08-19T18:59:13.942Z,114490.28
2022-08-19T19:01:22.667Z,114490.28
2022-08-19T19:03:27.948Z,114490.28
2022-08-19T19:05:31.583Z,114490.28
2022-08-19T19:07:35.854Z,114490.28
2022-08-19T19:09:44.182Z,114490.28
2022-08-19T19:11:51.431Z,114490.28
2022-08-19T19:13:55.087Z,114490.28
2022-08-19T19:15:58.958Z,114490.28
2022-08-19T19:18:02.394Z,114490.28
2022-08-19T19:20:06.604Z,114490.28
2022-08-19T19:22:12.608Z,114490.28
2022-08-19T19:24:18.479Z,114490.28
2022-08-19T19:26:22.736Z,114490.28
2022-08-19T19:28:30.085Z,114490.28
2022-08-19T19:30:33.940Z,114490.28
2022-08-19T19:32:39.408Z,114490.28
2022-08-19T19:34:43.395Z,114490.28
2022-08-19T19:36:47.335Z,114490.28
2022-08-19T19:38:51.891Z,114490.28
2022-08-19T19:40:55.593Z,114490.28
2022-08-19T19:43:01.198Z,114490.28
2022-08-19T19:45:04.964Z,114490.28
2022-08-19T19:47:09.141Z,114490.28
2022-08-19T19:49:13.052Z,114490.28
2022-08-19T19:51:16.953Z,114490.28
2022-08-19T19:53:21.276Z,114490.28
2022-08-19T19:55:27.869Z,114490.28
2022-08-19T19:57:32.269Z,114490.28
2022-08-19T19:59:36.435Z,114490.28
2022-08-19T20:01:41.695Z,114490.28
2022-08-19T20:03:48.422Z,114490.28
2022-08-19T20:05:53.598Z,114490.28
2022-08-19T20:08:16.870Z,114490.28
2022-08-19T20:10:22.702Z,114490.28
2022-08-19T20:12:26.287Z,114490.28
2022-08-19T20:14:36.758Z,114490.28
2022-08-19T20:16:43.717Z,114490.28
2022-08-19T20:18:49.668Z,114490.28
2022-08-19T20:20:53.543Z,114490.28
2022-08-19T20:22:57.271Z,114490.28
2022-08-19T20:25:02.446Z,114490.28
2022-08-19T20:27:06.650Z,114490.28
2022-08-19T20:29:38.041Z,114490.28
2022-08-19T20:31:57.676Z,114490.28
2022-08-19T20:34:02.151Z,114490.28
2022-08-19T20:36:05.970Z,114490.28
2022-08-19T20:38:10.691Z,114490.28
2022-08-19T20:40:14.626Z,114490.28
2022-08-19T20:42:21.590Z,114490.28
2022-08-19T20:44:26.411Z,114490.28
2022-08-19T20:46:30.436Z,114490.28
2022-08-19T20:48:34.286Z,114490.28
2022-08-19T20:50:38.162Z,114490.28
2022-08-19T20:52:52.530Z,114490.28
2022-08-19T20:54:57.636Z,114490.28
2022-08-19T20:57:01.609Z,114490.28
2022-08-19T20:59:06.003Z,114490.28
2022-08-19T21:01:11.518Z,114490.28
2022-08-19T21:03:19.180Z,114490.28
2022-08-19T21:05:26.184Z,114490.28
2022-08-19T21:07:39.587Z,114490.28
2022-08-19T21:09:44.249Z,114490.28
2022-08-19T21:11:48.617Z,114490.28
2022-08-19T21:13:52.437Z,114490.28
2022-08-19T21:15:59.292Z,114490.28
2022-08-19T21:18:02.864Z,114490.28
2022-08-19T21:20:09.043Z,114490.28
2022-08-19T21:22:13.080Z,114490.28
2022-08-19T21:24:17.078Z,114490.28
2022-08-19T21:26:20.686Z,114490.28
2022-08-19T21:28:29.864Z,114490.28
2022-08-19T21:30:41.035Z,114490.28
2022-08-19T21:32:47.348Z,114490.28
2022-08-19T21:34:58.208Z,114490.28
2022-08-19T21:37:02.334Z,114490.28
2022-08-19T21:39:06.391Z,114490.28
2022-08-19T21:41:10.629Z,114490.28
2022-08-19T21:43:14.757Z,114490.28
2022-08-19T21:45:22.159Z,114490.28
2022-08-19T21:47:25.779Z,114490.28
2022-08-19T21:49:30.361Z,114490.28
2022-08-19T21:51:37.663Z,114490.28
2022-08-19T21:53:41.229Z,114490.28
2022-08-19T21:55:52.762Z,114490.28
2022-08-19T21:57:58.345Z,114490.28
2022-08-19T22:00:02.599Z,114490.28
2022-08-19T22:02:19.938Z,114490.28
2022-08-19T22:04:24.572Z,114490.28
2022-08-19T22:06:30.173Z,114490.28
2022-08-19T22:08:33.936Z,114490.28
2022-08-19T22:10:38.371Z,114490.28
2022-08-19T22:12:51.360Z,114490.28
2022-08-19T22:14:56.224Z,114490.28
2022-08-19T22:17:00.087Z,114490.28
2022-08-19T22:19:03.967Z,114490.28
2022-08-19T22:21:11.849Z,114490.28
2022-08-19T22:23:16.370Z,114490.28
2022-08-19T22:25:30.217Z,114490.28
2022-08-19T22:27:36.481Z,114490.28
2022-08-19T22:29:40.058Z,114490.28
2022-08-19T22:31:44.634Z,114490.28
2022-08-19T22:33:49.102Z,114490.28
2022-08-19T22:35:53.942Z,114490.28
2022-08-19T22:37:57.668Z,114490.28
2022-08-19T22:40:05.359Z,114490.28
2022-08-19T22:42:09.653Z,114490.28
2022-08-19T22:44:13.349Z,114490.28
2022-08-19T22:46:22.230Z,114490.28
2022-08-19T22:48:27.201Z,114490.28
2022-08-19T22:50:34.280Z,114490.28
2022-08-19T22:52:41.347Z,114490.28
2022-08-19T22:54:57.873Z,114490.28
2022-08-19T22:57:01.917Z,114490.28
2022-08-19T22:59:07.231Z,114490.28
2022-08-19T23:01:16.321Z,114490.28
2022-08-19T23:03:31.537Z,114490.28
2022-08-19T23:05:35.497Z,114490.28
2022-08-19T23:07:44.137Z,114490.28
2022-08-19T23:09:56.265Z,114490.28
2022-08-19T23:12:01.839Z,114490.28
2022-08-19T23:14:06.662Z,114490.28
2022-08-19T23:16:12.862Z,114490.28
2022-08-19T23:18:19.052Z,114490.28
2022-08-19T23:20:24.293Z,114490.28
2022-08-19T23:22:32.318Z,114490.28
2022-08-19T23:24:36.031Z,114490.28
2022-08-19T23:26:40.161Z,114490.28
2022-08-19T23:29:02.080Z,114490.28
2022-08-19T23:31:05.849Z,114490.28
2022-08-19T23:33:16.500Z,114490.28
2022-08-19T23:35:20.905Z,114490.28
2022-08-19T23:37:26.745Z,114490.28
2022-08-19T23:39:33.256Z,114490.28
2022-08-19T23:41:39.837Z,114490.28
2022-08-19T23:43:44.053Z,114490.28
2022-08-19T23:45:50.994Z,114490.28
2022-08-19T23:47:55.635Z,114490.28
2022-08-19T23:50:00.228Z,114490.28
2022-08-19T23:52:04.429Z,114490.28
2022-08-19T23:54:08.199Z,114490.28
2022-08-19T23:56:14.966Z,114490.28
2022-08-19T23:58:19.336Z,114490.28
